createdAt,value
2023-01-25T00:00:20.579Z,6.18
2023-01-25T00:02:48.940Z,6.22
2023-01-25T00:05:17.461Z,6.26
2023-01-25T00:07:46.059Z,6.25
2023-01-25T00:10:14.356Z,6.49
2023-01-25T00:12:44.104Z,5.93
2023-01-25T00:15:12.744Z,6.51
2023-01-25T00:17:41.017Z,6.63
2023-01-25T00:20:10.666Z,6.71
2023-01-25T00:22:38.928Z,6.50
2023-01-25T00:25:07.939Z,6.96
2023-01-25T00:27:36.461Z,6.87
2023-01-25T00:30:07.299Z,6.54
2023-01-25T00:32:44.117Z,6.20
2023-01-25T00:35:13.420Z,6.28
2023-01-25T00:37:44.452Z,6.85
2023-01-25T00:40:14.116Z,6.34
2023-01-25T00:42:42.494Z,7.15
2023-01-25T00:45:13.479Z,7.01
2023-01-25T00:47:41.955Z,6.80
2023-01-25T00:50:11.395Z,6.42
2023-01-25T00:52:40.794Z,6.58
2023-01-25T00:55:10.251Z,6.12
2023-01-25T00:57:38.674Z,6.24
2023-01-25T01:00:08.177Z,5.88
2023-01-25T01:02:37.782Z,6.50
2023-01-25T01:05:07.187Z,6.38
2023-01-25T01:07:35.631Z,6.53
2023-01-25T01:10:03.939Z,6.15
2023-01-25T01:12:32.257Z,6.43
2023-01-25T01:15:00.519Z,6.40
2023-01-25T01:17:28.788Z,6.39
2023-01-25T01:19:58.411Z,5.94
2023-01-25T01:22:26.705Z,6.34
2023-01-25T01:24:55.028Z,5.75
2023-01-25T01:27:23.260Z,6.46
2023-01-25T01:29:51.522Z,6.32
2023-01-25T01:32:19.852Z,6.20
2023-01-25T01:34:48.218Z,5.81
2023-01-25T01:37:17.831Z,6.00
2023-01-25T01:39:46.114Z,5.50
2023-01-25T01:42:14.346Z,5.83
2023-01-25T01:44:47.831Z,5.16
2023-01-25T01:47:19.439Z,5.42
2023-01-25T01:49:52.523Z,5.43
2023-01-25T01:52:26.122Z,5.72
2023-01-25T01:54:56.991Z,6.00
2023-01-25T01:57:26.994Z,5.98
2023-01-25T01:59:58.179Z,5.88
2023-01-25T02:02:27.523Z,5.75
2023-01-25T02:05:00.314Z,5.85
2023-01-25T02:07:35.021Z,6.26
2023-01-25T02:10:04.320Z,5.77
2023-01-25T02:12:33.309Z,6.21
2023-01-25T02:15:01.575Z,6.26
2023-01-25T02:17:31.588Z,5.77
2023-01-25T02:20:02.275Z,6.14
2023-01-25T02:22:32.296Z,5.70
2023-01-25T02:25:06.964Z,5.85
2023-01-25T02:27:38.633Z,5.50
2023-01-25T02:30:08.306Z,5.39
2023-01-25T02:32:36.643Z,5.79
2023-01-25T02:35:06.186Z,5.82
2023-01-25T02:37:34.796Z,5.91
2023-01-25T02:40:05.816Z,6.07
2023-01-25T02:42:35.612Z,6.57
2023-01-25T02:45:04.339Z,6.30
2023-01-25T02:47:32.579Z,6.15
2023-01-25T02:50:00.868Z,5.77
2023-01-25T02:52:29.144Z,6.31
2023-01-25T02:54:57.407Z,6.39
2023-01-25T02:57:27.013Z,6.84
2023-01-25T02:59:55.276Z,6.26
2023-01-25T03:02:23.671Z,6.12
2023-01-25T03:04:52.208Z,6.69
2023-01-25T03:07:20.476Z,6.46
2023-01-25T03:09:48.773Z,6.46
2023-01-25T03:12:17.071Z,6.51
2023-01-25T03:14:46.773Z,6.55
2023-01-25T03:17:15.032Z,6.74
2023-01-25T03:19:43.317Z,6.05
2023-01-25T03:22:11.580Z,6.24
2023-01-25T03:24:39.859Z,6.31
2023-01-25T03:27:14.493Z,6.58
2023-01-25T03:29:42.834Z,6.14
2023-01-25T03:32:12.662Z,6.46
2023-01-25T03:34:41.047Z,6.27
2023-01-25T03:37:09.308Z,6.18
2023-01-25T03:39:37.611Z,5.90
2023-01-25T03:42:06.106Z,6.05
2023-01-25T03:44:34.468Z,6.08
2023-01-25T03:47:02.989Z,6.01
2023-01-25T03:49:32.644Z,6.11
2023-01-25T03:52:00.916Z,5.93
2023-01-25T03:54:29.184Z,6.31
2023-01-25T03:56:57.460Z,6.11
2023-01-25T03:59:26.123Z,5.58
2023-01-25T04:01:54.480Z,5.66
2023-01-25T04:04:22.979Z,5.53
2023-01-25T04:06:52.617Z,5.57
2023-01-25T04:09:20.883Z,5.50
2023-01-25T04:11:50.700Z,5.08
2023-01-25T04:14:28.386Z,5.85
2023-01-25T04:17:05.454Z,6.26
2023-01-25T04:19:33.816Z,6.27
2023-01-25T04:22:03.418Z,6.60
2023-01-25T04:24:31.664Z,6.47
2023-01-25T04:26:59.957Z,5.88
2023-01-25T04:29:40.135Z,6.13
2023-01-25T04:32:09.328Z,6.26
2023-01-25T04:34:37.740Z,5.88
2023-01-25T04:37:07.371Z,6.30
2023-01-25T04:39:35.648Z,6.15
2023-01-25T04:42:04.032Z,5.47
2023-01-25T04:44:32.518Z,5.73
2023-01-25T04:47:00.769Z,5.76
2023-01-25T04:49:29.069Z,5.51
2023-01-25T04:51:57.319Z,5.84
2023-01-25T04:54:26.960Z,5.65
2023-01-25T04:56:55.211Z,5.40
2023-01-25T04:59:23.461Z,6.03
2023-01-25T05:01:51.753Z,5.80
2023-01-25T05:04:20.180Z,6.06
2023-01-25T05:06:48.560Z,6.04
2023-01-25T05:09:17.710Z,5.82
2023-01-25T05:11:47.380Z,5.94
2023-01-25T05:14:15.626Z,6.12
2023-01-25T05:16:43.981Z,6.00
2023-01-25T05:19:12.375Z,5.79
2023-01-25T05:21:58.818Z,5.70
2023-01-25T05:24:27.180Z,5.86
2023-01-25T05:27:03.606Z,6.02
2023-01-25T05:29:35.834Z,5.74
2023-01-25T05:32:07.648Z,5.60
2023-01-25T05:34:36.567Z,6.37
2023-01-25T05:37:06.647Z,5.85
2023-01-25T05:39:35.080Z,5.99
2023-01-25T05:42:05.333Z,6.42
2023-01-25T05:44:33.567Z,5.94
2023-01-25T05:47:02.801Z,5.94
2023-01-25T05:49:31.091Z,6.21
2023-01-25T05:51:59.353Z,6.35
2023-01-25T05:54:27.870Z,5.98
2023-01-25T05:56:56.112Z,6.37
2023-01-25T05:59:25.726Z,6.37
2023-01-25T06:01:54.229Z,5.95
2023-01-25T06:04:22.493Z,6.05
2023-01-25T06:06:50.748Z,5.68
2023-01-25T06:09:18.977Z,5.76
2023-01-25T06:11:47.340Z,5.71
2023-01-25T06:14:15.775Z,5.74
2023-01-25T06:16:45.523Z,6.20
2023-01-25T06:19:14.496Z,5.97
2023-01-25T06:21:42.776Z,5.41
2023-01-25T06:24:11.200Z,5.14
2023-01-25T06:26:39.532Z,5.23
2023-01-25T06:29:08.135Z,5.45
2023-01-25T06:31:36.676Z,5.41
2023-01-25T06:34:08.085Z,5.51
2023-01-25T06:36:36.695Z,5.41
2023-01-25T06:39:05.175Z,5.05
2023-01-25T06:41:33.473Z,5.63
2023-01-25T06:44:01.794Z,5.74
2023-01-25T06:46:32.967Z,5.71
2023-01-25T06:49:01.227Z,6.67
2023-01-25T06:51:31.002Z,6.61
2023-01-25T06:54:03.476Z,6.14
2023-01-25T06:56:32.688Z,6.08
2023-01-25T06:59:01.130Z,6.60
2023-01-25T07:01:30.516Z,7.11
2023-01-25T07:04:00.284Z,6.50
2023-01-25T07:06:34.417Z,6.28
2023-01-25T07:09:06.182Z,6.42
2023-01-25T07:11:34.499Z,6.13
2023-01-25T07:14:02.895Z,5.94
2023-01-25T07:16:36.578Z,5.78
2023-01-25T07:19:05.252Z,5.55
2023-01-25T07:21:35.200Z,5.69
2023-01-25T07:24:05.494Z,6.11
2023-01-25T07:26:34.188Z,5.84
2023-01-25T07:29:02.437Z,5.81
2023-01-25T07:31:30.683Z,5.82
2023-01-25T07:33:59.976Z,5.88
2023-01-25T07:36:28.293Z,6.09
2023-01-25T07:38:58.972Z,5.96
2023-01-25T07:41:27.605Z,5.97
2023-01-25T07:43:56.060Z,5.72
2023-01-25T07:46:24.657Z,5.77
2023-01-25T07:48:53.972Z,5.75
2023-01-25T07:51:27.086Z,6.26
2023-01-25T07:53:58.121Z,6.33
2023-01-25T07:56:30.464Z,6.11
2023-01-25T07:58:59.909Z,5.94
2023-01-25T08:01:29.615Z,5.83
2023-01-25T08:03:58.069Z,6.32
2023-01-25T08:06:27.584Z,6.24
2023-01-25T08:08:57.824Z,6.39
2023-01-25T08:11:27.802Z,6.17
2023-01-25T08:13:56.311Z,6.11
2023-01-25T08:16:26.750Z,5.93
2023-01-25T08:18:56.526Z,5.85
2023-01-25T08:21:29.136Z,6.14
2023-01-25T08:24:00.097Z,6.14
2023-01-25T08:26:29.018Z,6.20
2023-01-25T08:28:57.654Z,6.25
2023-01-25T08:31:27.513Z,6.54
2023-01-25T08:33:56.633Z,5.46
2023-01-25T08:36:25.554Z,6.26
2023-01-25T08:38:56.002Z,6.07
2023-01-25T08:41:26.194Z,5.84
2023-01-25T08:43:55.587Z,5.76
2023-01-25T08:46:25.123Z,5.50
2023-01-25T08:48:55.819Z,5.57
2023-01-25T08:51:25.028Z,5.38
2023-01-25T08:53:53.713Z,5.54
2023-01-25T08:56:22.004Z,5.81
2023-01-25T08:58:52.037Z,5.78
2023-01-25T09:01:21.241Z,6.01
2023-01-25T09:03:51.346Z,5.91
2023-01-25T09:06:20.896Z,5.98
2023-01-25T09:08:49.404Z,6.52
2023-01-25T09:11:19.990Z,6.27
2023-01-25T09:13:48.943Z,5.74
2023-01-25T09:16:22.854Z,5.21
2023-01-25T09:18:51.221Z,6.10
2023-01-25T09:21:20.309Z,5.83
2023-01-25T09:23:51.492Z,6.22
2023-01-25T09:26:32.704Z,6.23
2023-01-25T09:29:01.117Z,5.89
2023-01-25T09:31:31.125Z,6.02
2023-01-25T09:33:59.464Z,6.23
2023-01-25T09:36:28.050Z,6.34
2023-01-25T09:38:56.867Z,6.28
2023-01-25T09:41:49.013Z,5.72
2023-01-25T09:44:29.341Z,5.58
2023-01-25T09:47:00.789Z,5.67
2023-01-25T09:49:46.948Z,5.70
2023-01-25T09:52:26.916Z,5.54
2023-01-25T09:54:55.258Z,6.09
2023-01-25T09:57:28.261Z,5.89
2023-01-25T09:59:57.130Z,6.14
2023-01-25T10:02:37.049Z,5.76
2023-01-25T10:05:09.213Z,6.45
2023-01-25T10:07:51.001Z,5.67
2023-01-25T10:10:23.058Z,5.88
2023-01-25T10:12:51.451Z,5.87
2023-01-25T10:15:21.700Z,5.74
2023-01-25T10:17:58.339Z,6.28
2023-01-25T10:20:32.774Z,6.16
2023-01-25T10:23:15.968Z,5.64
2023-01-25T10:25:47.462Z,5.85
2023-01-25T10:28:30.168Z,6.35
2023-01-25T10:31:02.038Z,6.01
2023-01-25T10:33:35.995Z,6.27
2023-01-25T10:36:06.611Z,6.07
2023-01-25T10:38:37.342Z,5.85
2023-01-25T10:41:08.091Z,6.48
2023-01-25T10:43:36.623Z,6.38
2023-01-25T10:46:05.173Z,5.63
2023-01-25T10:48:36.740Z,6.53
2023-01-25T10:51:05.304Z,6.02
2023-01-25T10:53:35.721Z,6.61
2023-01-25T10:56:25.261Z,6.21
2023-01-25T10:58:55.373Z,6.00
2023-01-25T11:01:28.959Z,6.40
2023-01-25T11:03:59.394Z,6.59
2023-01-25T11:06:35.522Z,6.66
2023-01-25T11:09:34.258Z,6.07
2023-01-25T11:12:03.945Z,6.87
2023-01-25T11:14:33.660Z,6.05
2023-01-25T11:17:03.331Z,6.26
2023-01-25T11:19:37.551Z,6.02
2023-01-25T11:22:07.324Z,6.13
2023-01-25T11:24:36.721Z,5.90
2023-01-25T11:27:18.675Z,6.62
2023-01-25T11:29:48.002Z,6.58
2023-01-25T11:32:22.598Z,6.23
2023-01-25T11:34:52.428Z,6.68
2023-01-25T11:37:30.727Z,6.25
2023-01-25T11:40:08.949Z,6.79
2023-01-25T11:42:45.009Z,6.36
2023-01-25T11:45:43.489Z,6.81
2023-01-25T11:48:25.553Z,5.93
2023-01-25T11:50:59.771Z,6.49
2023-01-25T11:53:40.616Z,6.53
2023-01-25T11:56:14.819Z,6.19
2023-01-25T11:59:10.666Z,6.47
2023-01-25T12:01:47.302Z,6.22
2023-01-25T12:04:37.136Z,6.64
2023-01-25T12:07:08.237Z,6.58
2023-01-25T12:10:08.925Z,7.12
2023-01-25T12:12:44.352Z,6.52
2023-01-25T12:15:35.881Z,6.84
2023-01-25T12:18:20.193Z,6.57
2023-01-25T12:21:01.725Z,6.76
2023-01-25T12:23:49.866Z,6.93
2023-01-25T12:26:24.367Z,6.55
2023-01-25T12:28:59.075Z,6.90
2023-01-25T12:31:32.826Z,6.05
2023-01-25T12:34:03.739Z,5.90
2023-01-25T12:36:34.562Z,6.50
2023-01-25T12:39:04.835Z,6.90
2023-01-25T12:41:41.091Z,6.31
2023-01-25T12:44:15.467Z,6.43
2023-01-25T12:46:47.021Z,7.09
2023-01-25T12:49:21.473Z,6.63
2023-01-25T12:51:49.824Z,6.03
2023-01-25T12:54:21.940Z,6.79
2023-01-25T12:56:55.490Z,6.52
2023-01-25T12:59:31.277Z,6.72
2023-01-25T13:02:05.054Z,6.80
2023-01-25T13:04:46.220Z,6.68
2023-01-25T13:07:18.614Z,6.25
2023-01-25T13:09:54.367Z,6.26
2023-01-25T13:12:24.603Z,6.29
2023-01-25T13:14:53.087Z,6.94
2023-01-25T13:17:24.183Z,6.68
2023-01-25T13:19:53.531Z,6.65
2023-01-25T13:22:58.657Z,6.75
2023-01-25T13:25:28.657Z,7.11
2023-01-25T13:28:34.342Z,6.90
2023-01-25T13:31:02.772Z,6.62
2023-01-25T13:33:35.252Z,7.01
2023-01-25T13:36:45.870Z,6.48
2023-01-25T13:39:42.669Z,6.56
2023-01-25T13:42:22.774Z,6.50
2023-01-25T13:44:52.777Z,6.49
2023-01-25T13:47:23.573Z,7.01
2023-01-25T13:49:57.960Z,6.57
2023-01-25T13:52:27.925Z,6.30
2023-01-25T13:54:57.633Z,6.38
2023-01-25T13:57:29.066Z,6.66
2023-01-25T14:00:10.105Z,6.80
2023-01-25T14:02:40.032Z,6.95
2023-01-25T14:05:19.074Z,6.26
2023-01-25T14:07:49.178Z,5.75
2023-01-25T14:10:23.392Z,7.05
2023-01-25T14:12:54.368Z,7.39
2023-01-25T14:15:24.221Z,6.71
2023-01-25T14:18:17.644Z,6.81
2023-01-25T14:20:47.016Z,6.78
2023-01-25T14:23:26.718Z,7.47
2023-01-25T14:25:58.606Z,6.40
2023-01-25T14:28:29.379Z,6.32
2023-01-25T14:31:01.277Z,6.78
2023-01-25T14:33:30.955Z,7.13
2023-01-25T14:36:16.167Z,6.52
2023-01-25T14:38:52.311Z,6.35
2023-01-25T14:41:22.832Z,6.12
2023-01-25T14:43:54.607Z,6.33
2023-01-25T14:46:25.520Z,5.89
2023-01-25T14:49:07.656Z,5.94
2023-01-25T14:51:41.367Z,5.92
2023-01-25T14:54:16.469Z,5.80
2023-01-25T14:56:46.372Z,6.57
2023-01-25T14:59:31.719Z,6.65
2023-01-25T15:02:02.458Z,6.77
2023-01-25T15:04:31.738Z,6.54
2023-01-25T15:07:12.534Z,7.08
2023-01-25T15:09:43.361Z,6.73
2023-01-25T15:12:30.150Z,6.81
2023-01-25T15:15:00.147Z,6.32
2023-01-25T15:17:46.379Z,6.14
2023-01-25T15:20:41.998Z,6.26
2023-01-25T15:23:23.925Z,6.06
2023-01-25T15:25:56.529Z,5.80
2023-01-25T15:28:26.817Z,6.20
2023-01-25T15:30:59.467Z,6.24
2023-01-25T15:33:29.483Z,6.19
2023-01-25T15:35:58.770Z,6.30
2023-01-25T15:38:27.123Z,6.40
2023-01-25T15:41:00.408Z,6.28
2023-01-25T15:43:29.009Z,6.42
2023-01-25T15:45:59.535Z,7.10
2023-01-25T15:48:29.158Z,6.46
2023-01-25T15:50:57.630Z,6.71
2023-01-25T15:53:26.272Z,7.34
2023-01-25T15:55:58.423Z,7.35
2023-01-25T15:58:28.822Z,6.59
2023-01-25T16:01:00.269Z,6.66
2023-01-25T16:03:28.948Z,5.67
2023-01-25T16:05:58.955Z,6.08
2023-01-25T16:08:27.954Z,6.25
2023-01-25T16:10:56.538Z,6.39
2023-01-25T16:13:25.229Z,6.66
2023-01-25T16:15:54.934Z,6.19
2023-01-25T16:18:24.640Z,6.12
2023-01-25T16:20:52.981Z,6.07
2023-01-25T16:23:21.324Z,5.78
2023-01-25T16:25:50.337Z,5.92
2023-01-25T16:28:18.838Z,6.36
2023-01-25T16:30:47.412Z,6.08
2023-01-25T16:33:15.804Z,6.26
2023-01-25T16:35:45.539Z,6.00
2023-01-25T16:38:13.850Z,6.31
2023-01-25T16:40:42.405Z,6.49
2023-01-25T16:43:10.675Z,6.49
2023-01-25T16:45:39.816Z,7.14
2023-01-25T16:48:08.317Z,6.68
2023-01-25T16:50:36.576Z,6.20
2023-01-25T16:53:06.373Z,6.77
2023-01-25T16:55:34.745Z,7.31
2023-01-25T16:58:03.092Z,6.77
2023-01-25T17:00:31.734Z,7.07
2023-01-25T17:03:00.197Z,6.54
2023-01-25T17:05:33.897Z,6.96
2023-01-25T17:08:02.237Z,7.23
2023-01-25T17:10:34.752Z,6.83
2023-01-25T17:13:03.247Z,6.27
2023-01-25T17:15:31.623Z,7.15
2023-01-25T17:17:59.966Z,7.24
2023-01-25T17:20:28.210Z,6.48
2023-01-25T17:22:56.485Z,6.69
2023-01-25T17:25:25.688Z,6.31
2023-01-25T17:27:55.327Z,6.34
2023-01-25T17:30:23.640Z,6.13
2023-01-25T17:32:51.887Z,6.37
2023-01-25T17:35:20.196Z,6.45
2023-01-25T17:37:48.468Z,6.26
2023-01-25T17:40:17.151Z,5.56
2023-01-25T17:42:45.587Z,5.96
2023-01-25T17:45:15.201Z,6.04
2023-01-25T17:47:43.468Z,6.38
2023-01-25T17:50:12.503Z,6.90
2023-01-25T17:52:41.049Z,6.62
2023-01-25T17:55:09.881Z,6.56
2023-01-25T17:57:38.253Z,6.69
2023-01-25T18:00:08.522Z,6.58
2023-01-25T18:02:38.220Z,6.07
2023-01-25T18:05:07.952Z,6.98
2023-01-25T18:07:36.307Z,6.44
2023-01-25T18:10:05.106Z,6.33
2023-01-25T18:12:33.360Z,6.45
2023-01-25T18:15:01.677Z,6.10
2023-01-25T18:17:29.892Z,5.71
2023-01-25T18:19:59.469Z,6.09
2023-01-25T18:22:28.713Z,6.65
2023-01-25T18:24:56.941Z,7.14
2023-01-25T18:27:28.842Z,7.42
2023-01-25T18:30:01.021Z,6.70
2023-01-25T18:32:30.385Z,6.72
2023-01-25T18:35:00.472Z,6.65
2023-01-25T18:37:33.477Z,6.26
2023-01-25T18:40:01.774Z,6.53
2023-01-25T18:42:30.046Z,6.51
2023-01-25T18:44:58.302Z,6.59
2023-01-25T18:47:26.677Z,6.79
2023-01-25T18:49:55.075Z,6.48
2023-01-25T18:52:25.406Z,6.80
2023-01-25T18:54:53.786Z,6.32
2023-01-25T18:57:22.270Z,7.02
2023-01-25T18:59:50.684Z,6.51
2023-01-25T19:02:19.931Z,6.25
2023-01-25T19:04:48.282Z,6.55
2023-01-25T19:07:16.640Z,6.41
2023-01-25T19:09:47.943Z,6.67
2023-01-25T19:12:16.277Z,6.45
2023-01-25T19:14:44.635Z,6.80
2023-01-25T19:17:12.903Z,7.03
2023-01-25T19:19:44.041Z,6.77
2023-01-25T19:22:12.361Z,6.45
2023-01-25T19:24:40.626Z,7.06
2023-01-25T19:27:10.265Z,6.76
2023-01-25T19:29:38.532Z,7.09
2023-01-25T19:32:07.016Z,7.14
2023-01-25T19:34:35.367Z,7.00
2023-01-25T19:37:03.736Z,6.83
2023-01-25T19:39:32.016Z,6.73
2023-01-25T19:42:00.302Z,6.47
2023-01-25T19:44:29.899Z,6.98
2023-01-25T19:46:58.241Z,6.85
2023-01-25T19:49:26.539Z,6.78
2023-01-25T19:51:54.891Z,6.76
2023-01-25T19:54:24.243Z,6.59
2023-01-25T19:56:52.759Z,6.82
2023-01-25T19:59:22.176Z,6.58
2023-01-25T20:01:52.314Z,7.04
2023-01-25T20:04:22.317Z,6.94
2023-01-25T20:06:51.334Z,6.95
2023-01-25T20:09:25.002Z,6.70
2023-01-25T20:11:56.072Z,6.60
2023-01-25T20:14:24.529Z,6.97
2023-01-25T20:16:54.324Z,6.85
2023-01-25T20:19:22.701Z,6.96
2023-01-25T20:21:51.100Z,6.22
2023-01-25T20:24:19.511Z,6.21
2023-01-25T20:26:47.824Z,6.61
2023-01-25T20:29:16.124Z,6.22
2023-01-25T20:31:45.710Z,6.98
2023-01-25T20:34:17.125Z,6.55
2023-01-25T20:36:45.931Z,6.48
2023-01-25T20:39:15.432Z,6.12
2023-01-25T20:41:43.789Z,6.22
2023-01-25T20:44:14.219Z,6.02
2023-01-25T20:46:43.329Z,5.58
2023-01-25T20:49:41.141Z,6.75
2023-01-25T20:52:12.927Z,6.58
2023-01-25T20:54:42.184Z,7.46
2023-01-25T20:57:10.412Z,7.68
2023-01-25T20:59:38.681Z,7.53
2023-01-25T21:02:06.999Z,7.31
2023-01-25T21:04:35.320Z,6.76
2023-01-25T21:07:04.908Z,6.60
2023-01-25T21:09:33.814Z,7.26
2023-01-25T21:12:02.486Z,7.50
2023-01-25T21:14:30.775Z,7.61
2023-01-25T21:16:59.679Z,7.58
2023-01-25T21:19:28.033Z,7.02
2023-01-25T21:21:56.319Z,6.62
2023-01-25T21:24:25.987Z,6.87
2023-01-25T21:26:54.300Z,6.77
2023-01-25T21:29:22.571Z,6.40
2023-01-25T21:31:53.100Z,5.88
2023-01-25T21:34:21.258Z,5.65
2023-01-25T21:36:49.988Z,6.76
2023-01-25T21:39:18.216Z,6.07
2023-01-25T21:41:47.800Z,5.89
2023-01-25T21:44:33.643Z,5.88
2023-01-25T21:47:28.914Z,5.91
2023-01-25T21:50:07.683Z,6.00
2023-01-25T21:52:36.421Z,6.07
2023-01-25T21:55:05.352Z,5.62
2023-01-25T21:57:35.624Z,5.88
2023-01-25T22:00:05.384Z,5.98
2023-01-25T22:02:33.756Z,5.54
2023-01-25T22:05:02.037Z,6.16
2023-01-25T22:07:32.187Z,5.78
2023-01-25T22:10:01.916Z,6.77
2023-01-25T22:12:30.184Z,5.63
2023-01-25T22:14:59.764Z,5.50
2023-01-25T22:17:28.668Z,5.99
2023-01-25T22:19:56.927Z,6.99
2023-01-25T22:22:25.231Z,7.42
2023-01-25T22:24:53.506Z,7.72
2023-01-25T22:27:33.231Z,7.53
2023-01-25T22:30:02.840Z,7.73
2023-01-25T22:32:31.106Z,7.67
2023-01-25T22:34:59.365Z,7.69
2023-01-25T22:37:27.673Z,6.23
2023-01-25T22:39:58.466Z,6.05
2023-01-25T22:42:26.814Z,5.99
2023-01-25T22:44:55.091Z,7.35
2023-01-25T22:47:24.767Z,6.94
2023-01-25T22:49:53.003Z,7.54
2023-01-25T22:52:21.233Z,7.47
2023-01-25T22:54:50.906Z,7.91
2023-01-25T22:57:19.286Z,6.27
2023-01-25T22:59:47.548Z,6.37
2023-01-25T23:02:15.855Z,6.41
2023-01-25T23:04:45.583Z,5.82
2023-01-25T23:07:18.741Z,6.59
2023-01-25T23:09:51.382Z,6.73
2023-01-25T23:12:19.809Z,6.42
2023-01-25T23:14:54.351Z,6.37
2023-01-25T23:17:41.422Z,6.97
2023-01-25T23:20:13.428Z,6.84
2023-01-25T23:22:42.218Z,6.42
2023-01-25T23:25:11.496Z,6.38
2023-01-25T23:27:39.935Z,6.28
2023-01-25T23:30:11.540Z,6.01
2023-01-25T23:32:40.239Z,6.20
2023-01-25T23:35:09.046Z,6.64
2023-01-25T23:37:38.652Z,6.54
2023-01-25T23:40:08.946Z,7.00
2023-01-25T23:42:37.502Z,6.61
2023-01-25T23:45:06.823Z,6.79
2023-01-25T23:47:35.323Z,6.09
2023-01-25T23:50:03.686Z,6.81
2023-01-25T23:52:31.960Z,6.68
2023-01-25T23:55:01.913Z,7.05
2023-01-25T23:57:30.514Z,7.63
2023-01-25T23:59:58.800Z,7.53
